createdAt,value
2019-03-17T00:00:35.976Z,3.75
2019-03-17T00:03:06.818Z,4.10
2019-03-17T00:05:37.576Z,3.62
2019-03-17T00:08:08.786Z,4.23
2019-03-17T00:10:39.804Z,4.45
2019-03-17T00:13:10.558Z,3.62
2019-03-17T00:15:41.697Z,3.45
2019-03-17T00:18:12.463Z,4.30
2019-03-17T00:20:43.370Z,4.22
2019-03-17T00:23:14.117Z,4.00
2019-03-17T00:25:44.881Z,4.00
2019-03-17T00:28:15.635Z,2.52
2019-03-17T00:30:46.379Z,3.15
2019-03-17T00:33:17.217Z,2.65
2019-03-17T00:35:47.970Z,6.50
2019-03-17T00:38:19.042Z,3.45
2019-03-17T00:40:49.918Z,4.45
2019-03-17T00:43:20.806Z,3.17
2019-03-17T00:45:51.606Z,4.33
2019-03-17T00:48:22.471Z,2.93
2019-03-17T00:50:53.290Z,3.60
2019-03-17T00:53:24.168Z,4.60
2019-03-17T00:55:54.975Z,4.17
2019-03-17T00:58:25.753Z,3.17
2019-03-17T01:00:56.615Z,4.33
2019-03-17T01:03:27.449Z,4.67
2019-03-17T01:05:58.209Z,5.00
2019-03-17T01:08:29.354Z,3.33
2019-03-17T01:11:00.175Z,3.27
2019-03-17T01:13:31.238Z,4.80
2019-03-17T01:16:02.057Z,5.27
2019-03-17T01:18:32.835Z,4.15
2019-03-17T01:21:03.591Z,3.60
2019-03-17T01:23:34.782Z,4.20
2019-03-17T01:26:05.670Z,5.92
2019-03-17T01:28:36.780Z,4.45
2019-03-17T01:31:07.530Z,5.10
2019-03-17T01:33:38.347Z,5.67
2019-03-17T01:36:09.208Z,5.45
2019-03-17T01:38:40.045Z,4.90
2019-03-17T01:41:10.825Z,4.80
2019-03-17T01:43:41.655Z,4.17
2019-03-17T01:46:12.557Z,4.40
2019-03-17T01:48:43.596Z,6.62
2019-03-17T01:51:14.415Z,5.75
2019-03-17T01:53:45.333Z,5.53
2019-03-17T01:56:16.371Z,5.72
2019-03-17T01:58:47.244Z,4.00
2019-03-17T02:01:18.149Z,4.53
2019-03-17T02:03:48.984Z,4.55
2019-03-17T02:06:19.768Z,4.58
2019-03-17T02:08:50.560Z,6.25
2019-03-17T02:11:21.306Z,3.95
2019-03-17T02:13:52.097Z,3.58
2019-03-17T02:16:23.260Z,5.15
2019-03-17T02:18:54.369Z,5.58
2019-03-17T02:21:25.125Z,4.95
2019-03-17T02:23:55.854Z,5.27
2019-03-17T02:26:26.598Z,4.78
2019-03-17T02:28:57.460Z,3.83
2019-03-17T02:31:28.198Z,5.42
2019-03-17T02:33:58.915Z,5.17
2019-03-17T02:36:29.727Z,5.92
2019-03-17T02:39:01.517Z,5.25
2019-03-17T02:41:32.365Z,4.12
2019-03-17T02:44:03.096Z,4.58
2019-03-17T02:46:33.832Z,4.55
2019-03-17T02:49:05.326Z,5.15
2019-03-17T02:51:36.066Z,5.00
2019-03-17T02:54:06.806Z,4.75
2019-03-17T02:56:38.591Z,4.05
2019-03-17T02:59:10.577Z,5.80
2019-03-17T03:01:41.331Z,7.57
2019-03-17T03:04:12.642Z,5.65
2019-03-17T03:06:43.695Z,5.73
2019-03-17T03:09:14.455Z,5.70
2019-03-17T03:11:45.539Z,4.33
2019-03-17T03:14:16.586Z,4.78
2019-03-17T03:16:47.377Z,7.55
2019-03-17T03:19:18.483Z,4.60
2019-03-17T03:21:49.205Z,6.20
2019-03-17T03:24:20.305Z,4.95
2019-03-17T03:26:51.385Z,6.05
2019-03-17T03:29:22.465Z,7.67
2019-03-17T03:31:53.485Z,7.65
2019-03-17T03:34:24.219Z,5.10
2019-03-17T03:36:55.030Z,7.97
2019-03-17T03:39:25.831Z,6.30
2019-03-17T03:41:56.541Z,8.78
2019-03-17T03:44:27.881Z,8.25
2019-03-17T03:46:59.181Z,7.17
2019-03-17T03:49:29.944Z,7.80
2019-03-17T03:52:00.915Z,11.05
2019-03-17T03:54:31.678Z,8.40
2019-03-17T03:57:02.597Z,7.43
2019-03-17T03:59:33.397Z,8.07
2019-03-17T04:02:04.567Z,9.23
2019-03-17T04:04:36.378Z,12.60
2019-03-17T04:07:07.506Z,13.10
2019-03-17T04:09:38.531Z,10.72
2019-03-17T04:12:09.344Z,11.83
2019-03-17T04:14:40.062Z,13.32
2019-03-17T04:17:10.806Z,10.83
2019-03-17T04:19:41.620Z,14.43
2019-03-17T04:22:12.882Z,9.25
2019-03-17T04:24:43.770Z,12.58
2019-03-17T04:27:15.351Z,10.10
2019-03-17T04:29:46.105Z,13.17
2019-03-17T04:32:17.226Z,9.45
2019-03-17T04:34:48.291Z,12.35
2019-03-17T04:37:19.020Z,11.65
2019-03-17T04:39:49.985Z,8.85
2019-03-17T04:42:20.713Z,14.38
2019-03-17T04:44:51.493Z,7.33
2019-03-17T04:47:22.227Z,12.45
2019-03-17T04:49:53.012Z,14.18
2019-03-17T04:52:23.746Z,12.25
2019-03-17T04:54:54.484Z,9.40
2019-03-17T04:57:25.240Z,14.73
2019-03-17T04:59:56.011Z,17.87
2019-03-17T05:02:26.755Z,10.75
2019-03-17T05:04:57.524Z,11.50
2019-03-17T05:07:28.500Z,10.53
2019-03-17T05:09:59.233Z,11.30
2019-03-17T05:12:29.970Z,13.25
2019-03-17T05:15:01.746Z,12.35
2019-03-17T05:17:33.822Z,11.30
2019-03-17T05:20:04.663Z,10.45
2019-03-17T05:22:35.670Z,11.30
2019-03-17T05:25:06.789Z,9.43
2019-03-17T05:27:37.508Z,13.25
2019-03-17T05:30:08.511Z,10.13
2019-03-17T05:32:39.245Z,13.03
2019-03-17T05:35:10.101Z,12.65
2019-03-17T05:37:41.149Z,9.10
2019-03-17T05:40:12.191Z,10.82
2019-03-17T05:42:43.513Z,9.93
2019-03-17T05:45:14.272Z,13.33
2019-03-17T05:47:44.981Z,8.08
2019-03-17T05:50:15.775Z,9.98
2019-03-17T05:52:47.067Z,9.28
2019-03-17T05:55:17.797Z,11.05
2019-03-17T05:57:48.515Z,8.65
2019-03-17T06:00:19.693Z,7.30
2019-03-17T06:02:50.419Z,8.60
2019-03-17T06:05:21.173Z,10.08
2019-03-17T06:07:52.005Z,9.30
2019-03-17T06:10:22.734Z,11.20
2019-03-17T06:12:53.453Z,9.87
2019-03-17T06:15:24.212Z,7.97
2019-03-17T06:17:55.075Z,12.13
2019-03-17T06:20:25.814Z,11.83
2019-03-17T06:22:56.540Z,8.33
2019-03-17T06:25:27.477Z,9.15
2019-03-17T06:27:58.198Z,9.93
2019-03-17T06:30:28.953Z,8.93
2019-03-17T06:32:59.686Z,7.70
2019-03-17T06:35:30.419Z,9.70
2019-03-17T06:38:01.137Z,6.72
2019-03-17T06:40:32.004Z,8.25
2019-03-17T06:43:02.742Z,9.45
2019-03-17T06:45:33.485Z,7.45
2019-03-17T06:48:04.322Z,8.08
2019-03-17T06:50:35.140Z,7.40
2019-03-17T06:53:06.215Z,8.98
2019-03-17T06:55:36.946Z,7.08
2019-03-17T06:58:07.682Z,6.40
2019-03-17T07:00:38.643Z,6.45
2019-03-17T07:03:09.362Z,6.37
2019-03-17T07:05:40.103Z,6.58
2019-03-17T07:08:11.138Z,5.87
2019-03-17T07:10:41.945Z,5.75
2019-03-17T07:13:12.914Z,5.97
2019-03-17T07:15:43.872Z,7.07
2019-03-17T07:18:14.936Z,7.10
2019-03-17T07:20:45.931Z,5.90
2019-03-17T07:23:16.644Z,5.63
2019-03-17T07:25:47.377Z,5.47
2019-03-17T07:28:19.151Z,5.90
2019-03-17T07:30:49.918Z,4.80
2019-03-17T07:33:20.654Z,4.03
2019-03-17T07:35:51.968Z,5.55
2019-03-17T07:38:22.690Z,4.73
2019-03-17T07:40:53.850Z,4.45
2019-03-17T07:43:25.112Z,3.70
2019-03-17T07:45:55.877Z,4.58
2019-03-17T07:48:26.602Z,3.50
2019-03-17T07:50:57.689Z,4.60
2019-03-17T07:53:28.713Z,3.02
2019-03-17T07:56:00.157Z,3.58
2019-03-17T07:58:31.228Z,2.30
2019-03-17T08:01:02.518Z,2.72
2019-03-17T08:03:33.338Z,4.00
2019-03-17T08:06:04.480Z,2.75
2019-03-17T08:08:35.499Z,3.60
2019-03-17T08:11:06.660Z,2.37
2019-03-17T08:13:37.480Z,4.37
2019-03-17T08:16:08.373Z,2.62
2019-03-17T08:18:39.355Z,3.22
2019-03-17T08:21:10.315Z,3.20
2019-03-17T08:23:41.047Z,3.17
2019-03-17T08:26:12.725Z,3.98
2019-03-17T08:28:44.464Z,2.95
2019-03-17T08:31:15.210Z,3.60
2019-03-17T08:33:45.939Z,4.53
2019-03-17T08:36:16.732Z,3.40
2019-03-17T08:38:47.589Z,3.05
2019-03-17T08:41:18.345Z,3.80
2019-03-17T08:43:54.302Z,4.43
2019-03-17T08:46:21.633Z,3.55
2019-03-17T08:48:52.504Z,5.03
2019-03-17T08:51:24.563Z,4.80
2019-03-17T08:53:55.478Z,4.28
2019-03-17T08:56:26.234Z,4.80
2019-03-17T08:58:57.094Z,5.27
2019-03-17T09:01:27.918Z,3.52
2019-03-17T09:03:59.225Z,3.77
2019-03-17T09:06:30.109Z,3.50
2019-03-17T09:09:01.017Z,3.77
2019-03-17T09:11:33.694Z,2.75
2019-03-17T09:14:04.492Z,2.80
2019-03-17T09:16:35.232Z,4.40
2019-03-17T09:19:08.518Z,3.87
2019-03-17T09:21:39.261Z,3.92
2019-03-17T09:24:17.152Z,4.45
2019-03-17T09:26:42.554Z,2.92
2019-03-17T09:29:14.557Z,3.57
2019-03-17T09:31:45.304Z,4.77
2019-03-17T09:34:15.999Z,3.27
2019-03-17T09:36:47.087Z,3.00
2019-03-17T09:39:17.805Z,3.52
2019-03-17T09:41:48.557Z,3.55
2019-03-17T09:44:19.292Z,3.35
2019-03-17T09:46:50.040Z,4.42
2019-03-17T09:49:21.812Z,4.15
2019-03-17T09:51:52.605Z,4.07
2019-03-17T09:54:23.324Z,3.98
2019-03-17T09:56:54.370Z,4.45
2019-03-17T09:59:25.131Z,2.90
2019-03-17T10:01:55.862Z,3.00
2019-03-17T10:04:27.563Z,4.85
2019-03-17T10:07:03.569Z,3.39
2019-03-17T10:09:34.374Z,4.92
2019-03-17T10:12:05.764Z,2.70
2019-03-17T10:14:36.764Z,4.60
2019-03-17T10:17:07.720Z,3.15
2019-03-17T10:19:38.460Z,5.05
2019-03-17T10:22:09.201Z,3.58
2019-03-17T10:24:40.241Z,3.05
2019-03-17T10:27:11.066Z,3.15
2019-03-17T10:29:41.978Z,2.52
2019-03-17T10:32:13.004Z,2.70
2019-03-17T10:34:43.902Z,3.43
2019-03-17T10:37:14.664Z,3.92
2019-03-17T10:39:45.747Z,2.40
2019-03-17T10:42:16.484Z,3.58
2019-03-17T10:44:47.278Z,3.95
2019-03-17T10:47:18.040Z,2.60
2019-03-17T10:49:48.770Z,3.37
2019-03-17T10:52:19.589Z,3.15
2019-03-17T10:54:51.657Z,3.65
2019-03-17T10:57:22.660Z,3.33
2019-03-17T10:59:53.405Z,3.67
2019-03-17T11:02:24.157Z,2.10
2019-03-17T11:04:55.150Z,4.55
2019-03-17T11:07:25.915Z,3.33
2019-03-17T11:09:56.645Z,3.92
2019-03-17T11:12:27.487Z,3.05
2019-03-17T11:14:58.225Z,2.83
2019-03-17T11:17:29.570Z,1.80
2019-03-17T11:20:00.408Z,3.25
2019-03-17T11:22:31.218Z,2.98
2019-03-17T11:25:17.717Z,3.98
2019-03-17T11:27:48.640Z,1.90
2019-03-17T11:30:19.541Z,2.05
2019-03-17T11:32:51.399Z,2.70
2019-03-17T11:35:22.542Z,2.83
2019-03-17T11:37:53.310Z,2.25
2019-03-17T11:40:24.709Z,2.42
2019-03-17T11:42:55.574Z,2.52
2019-03-17T11:45:26.596Z,2.25
2019-03-17T11:48:00.539Z,2.83
2019-03-17T11:50:31.380Z,3.30
2019-03-17T11:53:02.263Z,4.00
2019-03-17T11:55:32.990Z,4.80
2019-03-17T11:58:03.794Z,2.90
2019-03-17T12:00:34.610Z,2.33
2019-03-17T12:03:05.770Z,2.75
2019-03-17T12:05:36.545Z,2.87
2019-03-17T12:08:07.446Z,4.17
2019-03-17T12:10:38.187Z,2.55
2019-03-17T12:13:09.113Z,4.00
2019-03-17T12:15:39.890Z,2.92
2019-03-17T12:18:11.804Z,3.30
2019-03-17T12:20:42.561Z,4.17
2019-03-17T12:23:13.731Z,2.65
2019-03-17T12:25:44.627Z,2.90
2019-03-17T12:28:15.370Z,3.05
2019-03-17T12:30:46.136Z,2.13
2019-03-17T12:33:17.010Z,2.92
2019-03-17T12:35:47.751Z,1.90
2019-03-17T12:38:18.550Z,2.50
2019-03-17T12:40:49.325Z,1.45
2019-03-17T12:43:20.460Z,1.05
2019-03-17T12:45:51.274Z,1.30
2019-03-17T12:48:22.432Z,0.65
2019-03-17T12:50:53.269Z,1.80
2019-03-17T12:53:24.074Z,0.80
2019-03-17T12:55:54.837Z,1.52
2019-03-17T12:58:26.018Z,1.60
2019-03-17T13:00:56.834Z,0.90
2019-03-17T13:03:27.630Z,1.70
2019-03-17T13:05:59.461Z,1.10
2019-03-17T13:08:30.247Z,1.00
2019-03-17T13:11:01.281Z,14.57
2019-03-17T13:13:32.183Z,15.80
2019-03-17T13:16:03.030Z,18.07
2019-03-17T13:18:33.801Z,1.75
2019-03-17T13:21:04.679Z,1.40
2019-03-17T13:23:35.468Z,1.40
2019-03-17T13:26:06.406Z,1.20
2019-03-17T13:28:37.261Z,1.10
2019-03-17T13:31:08.032Z,1.00
2019-03-17T13:33:39.889Z,0.70
2019-03-17T13:36:10.621Z,1.50
2019-03-17T13:38:41.447Z,0.85
2019-03-17T13:41:12.211Z,1.05
2019-03-17T13:43:43.317Z,0.80
2019-03-17T13:46:14.107Z,0.90
2019-03-17T13:48:44.895Z,0.93
2019-03-17T13:51:15.744Z,0.80
2019-03-17T13:53:46.508Z,0.45
2019-03-17T13:56:17.423Z,0.83
2019-03-17T13:58:48.187Z,1.17
2019-03-17T14:01:18.943Z,1.00
2019-03-17T14:03:49.710Z,2.07
2019-03-17T14:06:20.493Z,1.30
2019-03-17T14:08:51.566Z,0.65
2019-03-17T14:11:22.404Z,1.02
2019-03-17T14:13:53.189Z,1.77
2019-03-17T14:16:23.974Z,1.70
2019-03-17T14:18:54.811Z,1.40
2019-03-17T14:21:25.575Z,1.50
2019-03-17T14:24:15.582Z,1.90
2019-03-17T14:26:46.344Z,0.98
2019-03-17T14:29:18.862Z,1.00
2019-03-17T14:31:49.646Z,1.62
2019-03-17T14:34:20.444Z,1.40
2019-03-17T14:36:51.200Z,1.22
2019-03-17T14:39:23.014Z,1.53
2019-03-17T14:41:53.861Z,2.00
2019-03-17T14:44:24.849Z,2.77
2019-03-17T14:46:55.631Z,2.47
2019-03-17T14:49:26.482Z,1.93
2019-03-17T14:51:57.502Z,11.50
2019-03-17T14:54:28.546Z,11.33
2019-03-17T14:56:59.346Z,7.15
2019-03-17T14:59:30.510Z,1.10
2019-03-17T15:02:01.567Z,1.53
2019-03-17T15:04:32.525Z,2.30
2019-03-17T15:07:03.320Z,1.40
2019-03-17T15:09:34.205Z,2.77
2019-03-17T15:12:05.111Z,1.60
2019-03-17T15:14:35.968Z,2.58
2019-03-17T15:17:06.754Z,2.70
2019-03-17T15:19:37.855Z,2.90
2019-03-17T15:22:08.651Z,3.08
2019-03-17T15:24:39.525Z,1.77
2019-03-17T15:27:10.324Z,1.55
2019-03-17T15:29:41.187Z,3.10
2019-03-17T15:32:12.051Z,1.60
2019-03-17T15:34:43.162Z,2.80
2019-03-17T15:37:13.939Z,2.40
2019-03-17T15:39:44.723Z,2.92
2019-03-17T15:42:15.787Z,1.80
2019-03-17T15:44:47.138Z,1.30
2019-03-17T15:47:19.025Z,2.23
2019-03-17T15:49:49.804Z,2.45
2019-03-17T15:52:20.561Z,2.00
2019-03-17T15:54:51.328Z,4.42
2019-03-17T15:57:22.395Z,1.70
2019-03-17T15:59:53.302Z,2.98
2019-03-17T16:02:24.081Z,2.60
2019-03-17T16:04:54.872Z,3.27
2019-03-17T16:07:25.650Z,2.08
2019-03-17T16:09:56.483Z,2.25
2019-03-17T16:12:27.522Z,3.05
2019-03-17T16:14:58.309Z,2.52
2019-03-17T16:17:30.137Z,2.30
2019-03-17T16:20:00.921Z,3.20
2019-03-17T16:22:31.778Z,1.80
2019-03-17T16:25:02.613Z,1.47
2019-03-17T16:27:33.446Z,1.72
2019-03-17T16:30:05.228Z,1.45
2019-03-17T16:32:36.098Z,1.53
2019-03-17T16:35:07.037Z,1.32
2019-03-17T16:37:38.017Z,2.62
2019-03-17T16:40:10.617Z,1.50
2019-03-17T16:42:41.542Z,2.75
2019-03-17T16:45:13.091Z,1.85
2019-03-17T16:47:44.023Z,3.22
2019-03-17T16:50:15.875Z,4.47
2019-03-17T16:52:46.739Z,2.77
2019-03-17T16:55:17.747Z,3.87
2019-03-17T16:57:48.736Z,2.47
2019-03-17T17:00:19.809Z,2.20
2019-03-17T17:02:51.069Z,2.58
2019-03-17T17:05:22.151Z,2.33
2019-03-17T17:07:52.914Z,3.37
2019-03-17T17:10:23.737Z,2.08
2019-03-17T17:12:55.414Z,2.10
2019-03-17T17:15:26.294Z,1.62
2019-03-17T17:17:57.285Z,4.10
2019-03-17T17:20:29.505Z,4.20
2019-03-17T17:23:00.513Z,2.45
2019-03-17T17:25:31.463Z,2.12
2019-03-17T17:28:03.729Z,2.22
2019-03-17T17:30:34.899Z,1.55
2019-03-17T17:33:19.233Z,3.17
2019-03-17T17:35:50.077Z,2.02
2019-03-17T17:38:20.947Z,2.25
2019-03-17T17:40:51.812Z,1.10
2019-03-17T17:43:35.462Z,1.90
2019-03-17T17:46:13.597Z,2.58
2019-03-17T17:48:44.393Z,1.55
2019-03-17T17:51:15.452Z,2.50
2019-03-17T17:53:46.377Z,2.75
2019-03-17T17:56:17.298Z,3.30
2019-03-17T17:58:48.060Z,1.50
2019-03-17T18:01:18.902Z,1.70
2019-03-17T18:03:51.801Z,2.10
2019-03-17T18:06:22.811Z,2.87
2019-03-17T18:08:53.837Z,2.92
2019-03-17T18:11:24.610Z,3.67
2019-03-17T18:13:55.698Z,3.53
2019-03-17T18:16:26.732Z,3.50
2019-03-17T18:18:57.588Z,5.08
2019-03-17T18:21:28.703Z,3.75
2019-03-17T18:23:59.543Z,2.20
2019-03-17T18:26:30.325Z,4.62
2019-03-17T18:29:01.141Z,1.90
2019-03-17T18:31:32.971Z,2.40
2019-03-17T18:34:04.116Z,1.65
2019-03-17T18:36:35.545Z,1.87
2019-03-17T18:39:07.771Z,2.35
2019-03-17T18:41:38.550Z,2.02
2019-03-17T18:44:09.346Z,1.82
2019-03-17T18:46:53.248Z,1.47
2019-03-17T18:49:30.200Z,1.17
2019-03-17T18:52:01.031Z,1.52
2019-03-17T18:54:32.142Z,4.20
2019-03-17T18:57:11.969Z,1.85
2019-03-17T18:59:48.883Z,2.20
2019-03-17T19:02:19.673Z,4.45
2019-03-17T19:04:50.435Z,1.40
2019-03-17T19:07:21.375Z,1.42
2019-03-17T19:09:52.207Z,2.52
2019-03-17T19:12:22.997Z,1.62
2019-03-17T19:14:54.084Z,1.27
2019-03-17T19:17:24.851Z,1.50
2019-03-17T19:19:55.667Z,2.52
2019-03-17T19:22:26.519Z,1.87
2019-03-17T19:24:57.275Z,1.90
2019-03-17T19:27:28.159Z,1.95
2019-03-17T19:29:58.918Z,1.70
2019-03-17T19:32:29.703Z,1.67
2019-03-17T19:35:00.580Z,3.20
2019-03-17T19:37:31.407Z,1.95
2019-03-17T19:40:02.737Z,2.15
2019-03-17T19:42:33.602Z,1.65
2019-03-17T19:45:04.976Z,1.92
2019-03-17T19:47:35.759Z,1.92
2019-03-17T19:50:07.212Z,2.15
2019-03-17T19:52:38.053Z,2.05
2019-03-17T19:55:09.095Z,2.27
2019-03-17T19:57:39.934Z,3.10
2019-03-17T20:00:13.156Z,3.12
2019-03-17T20:02:47.020Z,2.27
2019-03-17T20:05:17.023Z,2.47
2019-03-17T20:07:47.820Z,1.90
2019-03-17T20:10:20.697Z,2.67
2019-03-17T20:12:51.539Z,3.03
2019-03-17T20:15:22.430Z,2.57
2019-03-17T20:17:53.279Z,2.47
2019-03-17T20:20:24.051Z,2.83
2019-03-17T20:22:54.819Z,1.95
2019-03-17T20:25:25.582Z,3.05
2019-03-17T20:27:57.070Z,1.80
2019-03-17T20:30:27.849Z,1.87
2019-03-17T20:32:58.673Z,1.87
2019-03-17T20:35:29.449Z,2.35
2019-03-17T20:38:00.210Z,2.12
2019-03-17T20:40:31.051Z,2.52
2019-03-17T20:43:02.683Z,3.00
2019-03-17T20:45:35.542Z,3.75
2019-03-17T20:48:06.565Z,2.15
2019-03-17T20:50:38.508Z,1.87
2019-03-17T20:53:09.345Z,1.77
2019-03-17T20:55:40.205Z,2.33
2019-03-17T20:58:11.000Z,1.87
2019-03-17T21:00:41.890Z,1.52
2019-03-17T21:03:12.691Z,2.35
2019-03-17T21:05:43.635Z,2.17
2019-03-17T21:08:14.460Z,2.47
2019-03-17T21:10:45.329Z,2.62
2019-03-17T21:13:16.096Z,2.42
2019-03-17T21:15:46.875Z,3.52
2019-03-17T21:18:17.890Z,2.70
2019-03-17T21:20:48.633Z,5.17
2019-03-17T21:23:19.467Z,3.05
2019-03-17T21:25:50.219Z,3.27
2019-03-17T21:28:21.069Z,2.27
2019-03-17T21:30:51.867Z,2.00
2019-03-17T21:33:22.615Z,1.87
2019-03-17T21:35:53.583Z,1.90
2019-03-17T21:38:24.448Z,1.90
2019-03-17T21:41:06.576Z,3.23
2019-03-17T21:43:27.968Z,2.90
2019-03-17T21:45:58.825Z,1.70
2019-03-17T21:48:29.650Z,2.83
2019-03-17T21:51:00.406Z,2.50
2019-03-17T21:53:32.151Z,2.60
2019-03-17T21:56:02.936Z,2.50
2019-03-17T21:58:34.771Z,2.75
2019-03-17T22:01:05.511Z,3.85
2019-03-17T22:03:36.253Z,2.33
2019-03-17T22:06:07.157Z,2.50
2019-03-17T22:08:37.976Z,2.85
2019-03-17T22:11:08.759Z,3.00
2019-03-17T22:13:39.602Z,3.90
2019-03-17T22:16:10.345Z,3.03
2019-03-17T22:18:41.176Z,4.57
2019-03-17T22:21:12.037Z,3.40
2019-03-17T22:23:42.873Z,3.77
2019-03-17T22:26:13.668Z,3.05
2019-03-17T22:28:44.791Z,2.62
2019-03-17T22:31:15.539Z,7.28
2019-03-17T22:33:46.313Z,4.13
2019-03-17T22:36:17.137Z,4.90
2019-03-17T22:38:47.907Z,5.55
2019-03-17T22:41:18.663Z,6.45
2019-03-17T22:43:49.439Z,5.67
2019-03-17T22:46:20.189Z,7.47
2019-03-17T22:48:51.292Z,4.92
2019-03-17T22:51:22.031Z,6.45
2019-03-17T22:53:52.797Z,4.92
2019-03-17T22:56:23.554Z,6.22
2019-03-17T22:58:54.301Z,5.75
2019-03-17T23:01:25.118Z,5.62
2019-03-17T23:03:55.940Z,5.42
2019-03-17T23:06:26.737Z,4.00
2019-03-17T23:08:57.474Z,4.35
2019-03-17T23:11:28.299Z,3.20
2019-03-17T23:13:59.078Z,5.33
2019-03-17T23:16:29.808Z,3.05
2019-03-17T23:19:00.824Z,4.58
2019-03-17T23:21:31.647Z,3.53
2019-03-17T23:24:02.545Z,5.80
2019-03-17T23:26:33.293Z,4.37
2019-03-17T23:29:05.265Z,4.17
2019-03-17T23:31:36.164Z,4.27
2019-03-17T23:34:06.929Z,3.93
2019-03-17T23:36:37.790Z,3.75
2019-03-17T23:39:08.958Z,4.05
2019-03-17T23:41:39.696Z,3.60
2019-03-17T23:44:10.438Z,5.45
2019-03-17T23:46:42.780Z,5.60
2019-03-17T23:49:13.727Z,4.10
2019-03-17T23:51:44.479Z,4.87
2019-03-17T23:54:15.230Z,5.17
2019-03-17T23:56:45.958Z,5.97
2019-03-17T23:59:17.085Z,5.45
